Time,TemperatureF,DewpointF,PressureIn,WindDirection,WindDirectionDegrees,WindSpeedMPH,WindSpeedGustMPH,Humidity,HourlyPrecipIn,Conditions,Clouds,dailyrainin,SolarRadiationWatts/m^2,SoftwareType,DateUTC
2013-02-08 00:04:00,33.6,32.8,29.91,NW,322,3.0,8.0,97,0.00,CLR,CLR,0.00,0.0,WeatherDisplay:10.37,2013-02-08 06:04:00,
2013-02-08 00:14:00,33.5,32.7,29.91,NW,324,3.0,7.0,97,0.00,CLR,CLR,0.00,0.0,WeatherDisplay:10.37,2013-02-08 06:14:00,
2013-02-08 00:24:00,33.4,32.6,29.91,NW,320,3.0,7.0,97,0.00,CLR,CLR,0.00,0.0,WeatherDisplay:10.37,2013-02-08 06:24:00,
2013-02-08 00:34:00,33.4,32.6,29.92,NW,319,5.0,7.0,97,0.00,CLR,CLR,0.00,0.0,WeatherDisplay:10.37,2013-02-08 06:34:00,
2013-02-08 00:44:00,33.4,32.6,29.92,NW,315,6.0,7.0,97,0.00,CLR,CLR,0.00,0.0,WeatherDisplay:10.37,2013-02-08 06:44:00,
2013-02-08 00:49:00,33.4,32.6,29.92,NW,311,5.0,7.0,97,0.00,CLR,CLR,0.00,0.0,WeatherDisplay:10.37,2013-02-08 06:49:00,
2013-02-08 00:54:00,33.4,32.6,29.92,NW,312,5.0,8.0,97,0.00,CLR,CLR,0.00,0.0,WeatherDisplay:10.37,2013-02-08 06:54:00,
2013-02-08 00:59:00,33.4,32.6,29.92,NW,311,6.0,10.0,97,0.00,CLR,CLR,0.00,0.0,WeatherDisplay:10.37,2013-02-08 06:59:00,
2013-02-08 01:04:00,33.4,32.6,29.93,NW,312,5.0,8.0,97,0.00,CLR,CLR,0.00,0.0,WeatherDisplay:10.37,2013-02-08 07:04:00,
2013-02-08 01:09:00,33.4,32.4,29.93,NW,314,6.0,12.0,96,0.00,CLR,CLR,0.00,0.0,WeatherDisplay:10.37,2013-02-08 07:09:00,
2013-02-08 01:14:00,33.4,32.4,29.93,NW,311,5.0,7.0,96,0.00,CLR,CLR,0.00,0.0,WeatherDisplay:10.37,2013-02-08 07:14:00,
2013-02-08 01:24:00,33.3,32.3,29.94,WNW,303,6.0,12.0,96,0.00,CLR,CLR,0.00,0.0,WeatherDisplay:10.37,2013-02-08 07:24:00,
2013-02-08 01:29:00,33.1,32.1,29.94,WNW,298,5.0,8.0,96,0.00,CLR,CLR,0.00,0.0,WeatherDisplay:10.37,2013-02-08 07:29:00,
2013-02-08 01:34:00,32.9,31.9,29.95,WNW,303,6.0,9.0,96,0.00,CLR,CLR,0.00,0.0,WeatherDisplay:10.37,2013-02-08 07:34:00,
2013-02-08 01:39:00,32.7,31.7,29.95,NW,306,6.0,10.0,96,0.00,CLR,CLR,0.00,0.0,WeatherDisplay:10.37,2013-02-08 07:39:00,
2013-02-08 01:44:00,32.6,31.6,29.95,WNW,303,6.0,12.0,96,0.00,CLR,CLR,0.00,0.0,WeatherDisplay:10.37,2013-02-08 07:44:00,
2013-02-08 01:54:00,32.4,31.4,29.97,NW,313,6.0,9.0,96,0.00,CLR,CLR,0.00,0.0,WeatherDisplay:10.37,2013-02-08 07:54:00,
2013-02-08 02:04:00,32.2,30.9,29.97,NW,326,6.0,9.0,95,0.00,CLR,CLR,0.00,0.0,WeatherDisplay:10.37,2013-02-08 08:04:00,
2013-02-08 02:09:00,32.1,30.8,29.96,NNW,328,3.0,8.0,95,0.00,CLR,CLR,0.00,0.0,WeatherDisplay:10.37,2013-02-08 08:09:00,
2013-02-08 02:14:00,32.0,30.7,29.97,NNW,328,3.0,6.0,95,0.00,CLR,CLR,0.00,0.0,WeatherDisplay:10.37,2013-02-08 08:14:00,
2013-02-08 02:19:00,31.9,30.6,29.97,NNW,333,3.0,6.0,95,0.00,CLR,CLR,0.00,0.0,WeatherDisplay:10.37,2013-02-08 08:19:00,
2013-02-08 02:24:00,31.6,30.1,29.97,NNW,334,5.0,10.0,94,0.00,CLR,CLR,0.00,0.0,WeatherDisplay:10.37,2013-02-08 08:24:00,
2013-02-08 02:29:00,31.5,30.0,29.98,NNW,330,6.0,8.0,94,0.00,CLR,CLR,0.00,0.0,WeatherDisplay:10.37,2013-02-08 08:29:00,
2013-02-08 02:39:00,31.2,29.7,29.98,NW,320,5.0,9.0,94,0.00,CLR,CLR,0.00,0.0,WeatherDisplay:10.37,2013-02-08 08:39:00,
2013-02-08 02:44:00,31.0,29.5,29.99,NW,312,7.0,12.0,94,0.00,CLR,CLR,0.00,0.0,WeatherDisplay:10.37,2013-02-08 08:44:00,
2013-02-08 02:49:00,30.8,29.3,29.99,NW,315,6.0,10.0,94,0.00,CLR,CLR,0.00,0.0,WeatherDisplay:10.37,2013-02-08 08:49:00,
2013-02-08 02:54:00,30.5,29.0,30.00,NW,319,8.0,12.0,94,0.00,CLR,CLR,0.00,0.0,WeatherDisplay:10.37,2013-02-08 08:54:00,
2013-02-08 02:59:00,30.4,28.8,30.00,NW,318,7.0,12.0,94,0.00,CLR,CLR,0.00,0.0,WeatherDisplay:10.37,2013-02-08 08:59:00,
2013-02-08 03:04:00,30.2,28.7,30.00,NW,314,6.0,10.0,94,0.00,CLR,CLR,0.00,0.0,WeatherDisplay:10.37,2013-02-08 09:04:00,
2013-02-08 03:14:00,29.8,28.0,30.01,NW,321,6.0,10.0,93,0.00,CLR,CLR,0.00,0.0,WeatherDisplay:10.37,2013-02-08 09:14:00,
2013-02-08 03:19:00,29.6,27.8,30.01,NW,321,5.0,9.0,93,0.00,CLR,CLR,0.00,0.0,WeatherDisplay:10.37,2013-02-08 09:19:00,
2013-02-08 03:24:00,29.4,27.6,30.01,NW,326,3.0,8.0,93,0.00,CLR,CLR,0.00,0.0,WeatherDisplay:10.37,2013-02-08 09:24:00,
2013-02-08 03:34:00,29.2,27.4,30.02,NW,324,6.0,10.0,93,0.00,CLR,CLR,0.00,0.0,WeatherDisplay:10.37,2013-02-08 09:34:00,
2013-02-08 03:39:00,29.1,27.3,30.03,NNW,327,5.0,7.0,93,0.00,CLR,CLR,0.00,0.0,WeatherDisplay:10.37,2013-02-08 09:39:00,
2013-02-08 03:44:00,29.0,27.2,30.03,NNW,331,3.0,8.0,93,0.00,CLR,CLR,0.00,0.0,WeatherDisplay:10.37,2013-02-08 09:44:00,
2013-02-08 03:49:00,28.9,27.1,30.03,NNW,331,3.0,8.0,93,0.00,CLR,CLR,0.00,0.0,WeatherDisplay:10.37,2013-02-08 09:49:00,
2013-02-08 03:54:00,28.8,27.0,30.04,NNW,339,3.0,10.0,93,0.00,CLR,CLR,0.00,0.0,WeatherDisplay:10.37,2013-02-08 09:54:00,
2013-02-08 03:59:00,28.8,27.0,30.04,NNW,342,3.0,9.0,93,0.00,CLR,CLR,0.00,0.0,WeatherDisplay:10.37,2013-02-08 09:59:00,
2013-02-08 04:04:00,28.8,27.0,30.04,NNW,334,2.0,7.0,93,0.00,CLR,CLR,0.00,0.0,WeatherDisplay:10.37,2013-02-08 10:04:00,
2013-02-08 04:09:00,28.7,26.9,30.04,NW,322,3.0,8.0,93,0.00,CLR,CLR,0.00,0.0,WeatherDisplay:10.37,2013-02-08 10:09:00,
2013-02-08 04:14:00,28.5,26.8,30.04,NW,325,3.0,10.0,93,0.00,CLR,CLR,0.00,0.0,WeatherDisplay:10.37,2013-02-08 10:14:00,
2013-02-08 04:24:00,28.1,26.1,30.05,NW,324,6.0,10.0,92,0.00,CLR,CLR,0.00,0.0,WeatherDisplay:10.37,2013-02-08 10:24:00,
2013-02-08 04:29:00,28.0,26.2,30.05,NW,323,3.0,9.0,93,0.00,CLR,CLR,0.00,0.0,WeatherDisplay:10.37,2013-02-08 10:29:00,
2013-02-08 04:34:00,27.9,26.1,30.05,NW,321,3.0,9.0,93,0.00,CLR,CLR,0.00,0.0,WeatherDisplay:10.37,2013-02-08 10:34:00,
2013-02-08 04:39:00,27.7,25.9,30.06,NW,322,3.0,8.0,93,0.00,CLR,CLR,0.00,0.0,WeatherDisplay:10.37,2013-02-08 10:39:00,
2013-02-08 04:44:00,27.6,25.8,30.06,NNW,329,3.0,10.0,93,0.00,CLR,CLR,0.00,0.0,WeatherDisplay:10.37,2013-02-08 10:44:00,
2013-02-08 04:49:00,27.6,25.8,30.06,NNW,336,3.0,8.0,93,0.00,CLR,CLR,0.00,0.0,WeatherDisplay:10.37,2013-02-08 10:49:00,
2013-02-08 04:54:00,27.5,25.7,30.06,NNW,342,6.0,9.0,93,0.00,CLR,CLR,0.00,0.0,WeatherDisplay:10.37,2013-02-08 10:54:00,
2013-02-08 04:59:00,27.4,25.6,30.07,NNW,339,5.0,8.0,93,0.00,CLR,CLR,0.00,0.0,WeatherDisplay:10.37,2013-02-08 10:59:00,
2013-02-08 05:04:00,27.3,25.5,30.07,NNW,342,3.0,10.0,93,0.00,CLR,CLR,0.00,0.0,WeatherDisplay:10.37,2013-02-08 11:04:00,
2013-02-08 05:09:00,27.2,25.4,30.07,NNW,339,3.0,7.0,93,0.00,CLR,CLR,0.00,0.0,WeatherDisplay:10.37,2013-02-08 11:09:00,
2013-02-08 05:14:00,27.0,25.0,30.08,NNW,335,5.0,12.0,92,0.00,CLR,CLR,0.00,0.0,WeatherDisplay:10.37,2013-02-08 11:14:00,
2013-02-08 05:19:00,26.8,24.8,30.08,NNW,333,3.0,6.0,92,0.00,CLR,CLR,0.00,0.0,WeatherDisplay:10.37,2013-02-08 11:19:00,
2013-02-08 05:24:00,26.6,24.6,30.08,NNW,329,2.0,6.0,92,0.00,CLR,CLR,0.00,0.0,WeatherDisplay:10.37,2013-02-08 11:24:00,
2013-02-08 05:29:00,26.4,24.4,30.08,NW,323,5.0,9.0,92,0.00,CLR,CLR,0.00,0.0,WeatherDisplay:10.37,2013-02-08 11:29:00,
2013-02-08 05:34:00,26.2,24.2,30.08,NNW,329,3.0,5.0,92,0.00,CLR,CLR,0.00,0.0,WeatherDisplay:10.37,2013-02-08 11:34:00,
2013-02-08 05:39:00,26.0,24.0,30.08,NNW,340,6.0,12.0,92,0.00,CLR,CLR,0.00,0.0,WeatherDisplay:10.37,2013-02-08 11:39:00,
2013-02-08 05:44:00,26.0,24.0,30.08,North,350,3.0,7.0,92,0.00,CLR,CLR,0.00,0.0,WeatherDisplay:10.37,2013-02-08 11:44:00,
2013-02-08 05:54:00,26.0,23.7,30.09,North,349,5.0,12.0,91,0.00,CLR,CLR,0.00,0.0,WeatherDisplay:10.37,2013-02-08 11:54:00,
2013-02-08 05:59:00,26.1,23.8,30.09,NNW,345,7.0,13.0,91,0.00,CLR,CLR,0.00,0.0,WeatherDisplay:10.37,2013-02-08 11:59:00,
2013-02-08 06:04:00,26.1,23.8,30.10,North,349,8.0,15.0,91,0.00,CLR,CLR,0.00,0.0,WeatherDisplay:10.37,2013-02-08 12:04:00,
2013-02-08 06:09:00,26.2,23.9,30.10,North,353,6.0,12.0,91,0.00,CLR,CLR,0.00,0.0,WeatherDisplay:10.37,2013-02-08 12:09:00,
2013-02-08 06:14:00,26.2,23.9,30.11,NNW,347,6.0,12.0,91,0.00,CLR,CLR,0.00,0.0,WeatherDisplay:10.37,2013-02-08 12:14:00,
2013-02-08 06:24:00,26.4,24.4,30.13,North,358,6.0,12.0,92,0.00,CLR,CLR,0.00,0.0,WeatherDisplay:10.37,2013-02-08 12:24:00,
2013-02-08 06:29:00,26.5,24.5,30.13,NNW,340,5.0,9.0,92,0.00,CLR,CLR,0.00,0.0,WeatherDisplay:10.37,2013-02-08 12:29:00,
2013-02-08 06:34:00,26.6,24.6,30.13,NNW,343,6.0,10.0,92,0.00,CLR,CLR,0.00,0.0,WeatherDisplay:10.37,2013-02-08 12:34:00,
2013-02-08 06:39:00,26.6,24.9,30.13,NNW,340,5.0,8.0,93,0.00,CLR,CLR,0.00,0.0,WeatherDisplay:10.37,2013-02-08 12:39:00,
2013-02-08 06:44:00,26.7,24.9,30.14,NNW,331,5.0,12.0,93,0.00,CLR,CLR,0.00,0.0,WeatherDisplay:10.37,2013-02-08 12:44:00,
2013-02-08 06:49:00,26.7,24.9,30.14,NNW,336,3.0,9.0,93,0.00,CLR,CLR,0.00,0.0,WeatherDisplay:10.37,2013-02-08 12:49:00,
2013-02-08 06:54:00,26.7,24.9,30.14,NNW,333,7.0,8.0,93,0.00,CLR,CLR,0.00,0.0,WeatherDisplay:10.37,2013-02-08 12:54:00,
2013-02-08 06:59:00,26.8,25.0,30.15,NNW,331,6.0,10.0,93,0.00,CLR,CLR,0.00,0.0,WeatherDisplay:10.37,2013-02-08 12:59:00,
2013-02-08 07:04:00,26.8,24.8,30.15,NNW,327,6.0,10.0,92,0.00,CLR,CLR,0.00,0.0,WeatherDisplay:10.37,2013-02-08 13:04:00,
2013-02-08 07:14:00,26.8,24.8,30.15,NW,323,6.0,10.0,92,0.00,CLR,CLR,0.00,0.0,WeatherDisplay:10.37,2013-02-08 13:14:00,
2013-02-08 07:19:00,26.7,24.7,30.15,NW,326,5.0,9.0,92,0.00,CLR,CLR,0.00,0.0,WeatherDisplay:10.37,2013-02-08 13:19:00,
2013-02-08 07:24:00,26.8,25.0,30.16,NNW,327,5.0,8.0,93,0.00,CLR,CLR,0.00,0.0,WeatherDisplay:10.37,2013-02-08 13:24:00,
2013-02-08 07:29:00,26.9,25.1,30.16,NNW,328,2.0,6.0,93,0.00,CLR,CLR,0.00,0.0,WeatherDisplay:10.37,2013-02-08 13:29:00,
2013-02-08 07:34:00,26.9,25.1,30.16,NW,326,3.0,7.0,93,0.00,CLR,CLR,0.00,0.0,WeatherDisplay:10.37,2013-02-08 13:34:00,
2013-02-08 07:44:00,27.1,25.3,30.17,NNW,331,3.0,5.0,93,0.00,CLR,CLR,0.00,0.0,WeatherDisplay:10.37,2013-02-08 13:44:00,
2013-02-08 07:49:00,27.2,25.4,30.17,NW,326,3.0,6.0,93,0.00,CLR,CLR,0.00,0.0,WeatherDisplay:10.37,2013-02-08 13:49:00,
2013-02-08 07:54:00,27.3,25.5,30.18,NNW,327,5.0,9.0,93,0.00,CLR,CLR,0.00,0.0,WeatherDisplay:10.37,2013-02-08 13:54:00,
2013-02-08 07:59:00,27.4,25.6,30.18,NNW,328,3.0,9.0,93,0.00,CLR,CLR,0.00,0.0,WeatherDisplay:10.37,2013-02-08 13:59:00,
2013-02-08 08:04:00,27.5,25.7,30.18,NNW,329,5.0,9.0,93,0.00,CLR,CLR,0.00,0.0,WeatherDisplay:10.37,2013-02-08 14:04:00,
2013-02-08 08:09:00,27.6,25.9,30.18,NW,326,5.0,10.0,93,0.00,CLR,CLR,0.00,0.0,WeatherDisplay:10.37,2013-02-08 14:09:00,
2013-02-08 08:14:00,27.8,26.0,30.18,NW,322,6.0,9.0,93,0.00,CLR,CLR,0.00,0.0,WeatherDisplay:10.37,2013-02-08 14:14:00,
2013-02-08 08:24:00,28.0,26.2,30.19,NNW,331,5.0,8.0,93,0.00,CLR,CLR,0.00,0.0,WeatherDisplay:10.37,2013-02-08 14:24:00,
2013-02-08 08:29:00,28.2,26.4,30.19,NNW,328,3.0,7.0,93,0.00,CLR,CLR,0.00,0.0,WeatherDisplay:10.37,2013-02-08 14:29:00,
2013-02-08 08:34:00,28.4,26.6,30.19,NW,326,3.0,9.0,93,0.00,CLR,CLR,0.00,0.0,WeatherDisplay:10.37,2013-02-08 14:34:00,
2013-02-08 08:39:00,28.5,26.5,30.19,NW,323,6.0,10.0,92,0.00,CLR,CLR,0.00,0.0,WeatherDisplay:10.37,2013-02-08 14:39:00,
2013-02-08 08:49:00,28.5,26.5,30.20,NW,322,7.0,12.0,92,0.00,CLR,CLR,0.00,0.0,WeatherDisplay:10.37,2013-02-08 14:49:00,
2013-02-08 08:54:00,28.6,26.6,30.20,NW,320,6.0,12.0,92,0.00,CLR,CLR,0.00,0.0,WeatherDisplay:10.37,2013-02-08 14:54:00,
2013-02-08 08:59:00,28.7,26.6,30.21,NW,320,6.0,12.0,92,0.00,CLR,CLR,0.00,0.0,WeatherDisplay:10.37,2013-02-08 14:59:00,
2013-02-08 09:04:00,28.6,26.6,30.21,NW,319,6.0,12.0,92,0.00,CLR,CLR,0.00,0.0,WeatherDisplay:10.37,2013-02-08 15:04:00,
2013-02-08 09:09:00,28.7,26.7,30.21,NW,317,6.0,12.0,92,0.00,CLR,CLR,0.00,0.0,WeatherDisplay:10.37,2013-02-08 15:09:00,
2013-02-08 09:14:00,28.8,27.0,30.22,NW,313,6.0,10.0,93,0.00,CLR,CLR,0.00,0.0,WeatherDisplay:10.37,2013-02-08 15:14:00,
2013-02-08 09:24:00,28.7,26.7,30.22,NW,314,7.0,10.0,92,0.00,CLR,CLR,0.00,0.0,WeatherDisplay:10.37,2013-02-08 15:24:00,
2013-02-08 09:29:00,28.6,26.6,30.23,NW,313,5.0,12.0,92,0.00,CLR,CLR,0.00,0.0,WeatherDisplay:10.37,2013-02-08 15:29:00,
2013-02-08 09:34:00,28.6,26.6,30.23,NW,316,6.0,10.0,92,0.00,CLR,CLR,0.00,0.0,WeatherDisplay:10.37,2013-02-08 15:34:00,
2013-02-08 09:39:00,28.7,26.7,30.23,NW,319,7.0,10.0,92,0.00,CLR,CLR,0.00,0.0,WeatherDisplay:10.37,2013-02-08 15:39:00,
2013-02-08 09:44:00,28.8,26.8,30.23,NW,319,6.0,9.0,92,0.00,CLR,CLR,0.00,0.0,WeatherDisplay:10.37,2013-02-08 15:44:00,
2013-02-08 09:54:00,29.4,27.6,30.24,NW,326,5.0,8.0,93,0.00,CLR,CLR,0.00,0.0,WeatherDisplay:10.37,2013-02-08 15:54:00,
2013-02-08 09:59:00,29.5,27.5,30.24,NNW,328,3.0,8.0,92,0.00,CLR,CLR,0.00,0.0,WeatherDisplay:10.37,2013-02-08 15:59:00,
2013-02-08 10:04:00,29.7,27.7,30.24,NW,326,5.0,9.0,92,0.00,CLR,CLR,0.00,0.0,WeatherDisplay:10.37,2013-02-08 16:04:00,
2013-02-08 10:09:00,29.8,27.8,30.24,NW,326,3.0,9.0,92,0.00,CLR,CLR,0.00,0.0,WeatherDisplay:10.37,2013-02-08 16:09:00,
2013-02-08 10:14:00,29.9,27.9,30.24,NW,326,3.0,10.0,92,0.00,CLR,CLR,0.00,0.0,WeatherDisplay:10.37,2013-02-08 16:14:00,
2013-02-08 10:24:00,30.0,28.0,30.25,NW,324,6.0,8.0,92,0.00,CLR,CLR,0.00,0.0,WeatherDisplay:10.37,2013-02-08 16:24:00,
2013-02-08 10:34:00,30.0,28.0,30.26,NW,321,5.0,9.0,92,0.00,CLR,CLR,0.00,0.0,WeatherDisplay:10.37,2013-02-08 16:34:00,
2013-02-08 10:39:00,30.1,28.3,30.26,NW,321,5.0,10.0,93,0.00,CLR,CLR,0.00,0.0,WeatherDisplay:10.37,2013-02-08 16:39:00,
2013-02-08 10:44:00,30.0,28.0,30.27,NW,321,3.0,10.0,92,0.00,CLR,CLR,0.00,0.0,WeatherDisplay:10.37,2013-02-08 16:44:00,
2013-02-08 10:54:00,29.9,27.6,30.27,NW,318,6.0,10.0,91,0.00,CLR,CLR,0.00,0.0,WeatherDisplay:10.37,2013-02-08 16:54:00,
2013-02-08 10:59:00,29.9,27.6,30.27,NW,317,6.0,12.0,91,0.00,CLR,CLR,0.00,0.0,WeatherDisplay:10.37,2013-02-08 16:59:00,
2013-02-08 11:04:00,29.9,27.9,30.27,NW,318,5.0,9.0,92,0.00,CLR,CLR,0.00,0.0,WeatherDisplay:10.37,2013-02-08 17:04:00,
2013-02-08 11:14:00,30.1,28.1,30.26,NW,325,5.0,9.0,92,0.00,CLR,CLR,0.00,0.0,WeatherDisplay:10.37,2013-02-08 17:14:00,
2013-02-08 11:24:00,30.8,28.5,30.25,NNW,329,5.0,9.0,91,0.00,CLR,CLR,0.00,0.0,WeatherDisplay:10.37,2013-02-08 17:24:00,
2013-02-08 11:34:00,31.6,29.5,30.25,NNW,329,5.0,9.0,92,0.00,CLR,CLR,0.00,0.0,WeatherDisplay:10.37,2013-02-08 17:34:00,
2013-02-08 11:44:00,32.3,30.2,30.25,NNW,334,5.0,6.0,92,0.00,CLR,CLR,0.00,0.0,WeatherDisplay:10.37,2013-02-08 17:44:00,
2013-02-08 11:54:00,32.7,30.6,30.25,NNW,334,5.0,8.0,92,0.00,CLR,CLR,0.00,0.0,WeatherDisplay:10.37,2013-02-08 17:54:00,
2013-02-08 11:59:00,32.8,30.2,30.25,NNW,331,6.0,13.0,90,0.00,CLR,CLR,0.00,0.0,WeatherDisplay:10.37,2013-02-08 17:59:00,
2013-02-08 12:04:00,32.6,30.0,30.25,NNW,338,5.0,9.0,90,0.00,CLR,CLR,0.00,0.0,WeatherDisplay:10.37,2013-02-08 18:04:00,
2013-02-08 12:14:00,32.6,30.3,30.25,NNW,332,5.0,9.0,91,0.00,CLR,CLR,0.00,0.0,WeatherDisplay:10.37,2013-02-08 18:14:00,
2013-02-08 12:24:00,32.4,29.5,30.26,NNW,331,5.0,10.0,89,0.00,CLR,CLR,0.00,0.0,WeatherDisplay:10.37,2013-02-08 18:24:00,
2013-02-08 12:29:00,32.6,29.7,30.26,NNW,337,5.0,10.0,89,0.00,CLR,CLR,0.00,0.0,WeatherDisplay:10.37,2013-02-08 18:29:00,
2013-02-08 12:34:00,32.7,30.1,30.26,NW,326,5.0,7.0,90,0.00,CLR,CLR,0.00,0.0,WeatherDisplay:10.37,2013-02-08 18:34:00,
2013-02-08 12:44:00,32.7,30.1,30.27,NNW,330,5.0,8.0,90,0.00,CLR,CLR,0.00,0.0,WeatherDisplay:10.37,2013-02-08 18:44:00,
2013-02-08 12:54:00,33.2,30.3,30.27,NW,326,6.0,8.0,89,0.00,CLR,CLR,0.00,0.0,WeatherDisplay:10.37,2013-02-08 18:54:00,
2013-02-08 12:59:00,33.1,30.5,30.27,NW,320,6.0,10.0,90,0.00,CLR,CLR,0.00,0.0,WeatherDisplay:10.37,2013-02-08 18:59:00,
2013-02-08 13:09:00,33.0,30.1,30.27,NW,326,5.0,7.0,89,0.00,CLR,CLR,0.00,0.0,WeatherDisplay:10.37,2013-02-08 19:09:00,
2013-02-08 13:14:00,33.0,30.1,30.27,NW,323,5.0,8.0,89,0.00,CLR,CLR,0.00,0.0,WeatherDisplay:10.37,2013-02-08 19:14:00,
2013-02-08 13:24:00,32.5,29.9,30.28,NW,317,6.0,9.0,90,0.00,CLR,CLR,0.00,0.0,WeatherDisplay:10.37,2013-02-08 19:24:00,
2013-02-08 13:29:00,32.5,29.7,30.28,NW,311,6.0,9.0,89,0.00,CLR,CLR,0.00,0.0,WeatherDisplay:10.37,2013-02-08 19:29:00,
2013-02-08 13:39:00,32.2,29.1,30.28,NW,318,5.0,9.0,88,0.00,CLR,CLR,0.00,0.0,WeatherDisplay:10.37,2013-02-08 19:39:00,
2013-02-08 13:44:00,32.2,29.3,30.28,NW,315,5.0,9.0,89,0.00,CLR,CLR,0.00,0.0,WeatherDisplay:10.37,2013-02-08 19:44:00,
2013-02-08 13:49:00,32.0,28.8,30.28,NW,314,6.0,9.0,88,0.00,CLR,CLR,0.00,0.0,WeatherDisplay:10.37,2013-02-08 19:49:00,
2013-02-08 13:54:00,31.9,29.0,30.27,NW,318,6.0,9.0,89,0.00,CLR,CLR,0.00,0.0,WeatherDisplay:10.37,2013-02-08 19:54:00,
2013-02-08 13:59:00,32.3,29.7,30.28,NW,324,5.0,8.0,90,0.00,CLR,CLR,0.00,0.0,WeatherDisplay:10.37,2013-02-08 19:59:00,
2013-02-08 14:04:00,32.6,29.7,30.28,NW,323,5.0,8.0,89,0.00,CLR,CLR,0.00,0.0,WeatherDisplay:10.37,2013-02-08 20:04:00,
2013-02-08 14:09:00,32.8,29.9,30.28,NW,320,5.0,8.0,89,0.00,CLR,CLR,0.00,0.0,WeatherDisplay:10.37,2013-02-08 20:09:00,
2013-02-08 14:14:00,32.6,29.5,30.28,NW,317,3.0,8.0,88,0.00,CLR,CLR,0.00,0.0,WeatherDisplay:10.37,2013-02-08 20:14:00,
2013-02-08 14:19:00,33.1,29.7,30.28,NW,318,6.0,8.0,87,0.00,CLR,CLR,0.00,0.0,WeatherDisplay:10.37,2013-02-08 20:19:00,
2013-02-08 14:29:00,33.2,30.0,30.28,NW,322,3.0,6.0,88,0.00,CLR,CLR,0.00,0.0,WeatherDisplay:10.37,2013-02-08 20:29:00,
2013-02-08 14:34:00,33.3,29.6,30.28,NW,317,6.0,9.0,86,0.00,CLR,CLR,0.00,0.0,WeatherDisplay:10.37,2013-02-08 20:34:00,
2013-02-08 14:39:00,32.8,29.4,30.28,NW,311,6.0,9.0,87,0.00,CLR,CLR,0.00,0.0,WeatherDisplay:10.37,2013-02-08 20:39:00,
2013-02-08 14:44:00,33.0,29.8,30.29,NW,313,6.0,12.0,88,0.00,CLR,CLR,0.00,0.0,WeatherDisplay:10.37,2013-02-08 20:44:00,
2013-02-08 14:49:00,32.9,29.7,30.29,NW,325,3.0,7.0,88,0.00,CLR,CLR,0.00,0.0,WeatherDisplay:10.37,2013-02-08 20:49:00,
2013-02-08 14:54:00,33.0,29.3,30.29,NW,317,3.0,7.0,86,0.00,CLR,CLR,0.00,0.0,WeatherDisplay:10.37,2013-02-08 20:54:00,
2013-02-08 14:59:00,32.9,29.5,30.29,NW,320,3.0,6.0,87,0.00,CLR,CLR,0.00,0.0,WeatherDisplay:10.37,2013-02-08 20:59:00,
2013-02-08 15:04:00,33.2,29.4,30.29,NNW,333,5.0,8.0,86,0.00,CLR,CLR,0.00,0.0,WeatherDisplay:10.37,2013-02-08 21:04:00,
2013-02-08 15:09:00,33.3,29.9,30.29,NW,321,5.0,7.0,87,0.00,CLR,CLR,0.00,0.0,WeatherDisplay:10.37,2013-02-08 21:09:00,
2013-02-08 15:14:00,33.6,30.1,30.29,NW,319,5.0,9.0,87,0.00,CLR,CLR,0.00,0.0,WeatherDisplay:10.37,2013-02-08 21:14:00,
2013-02-08 15:19:00,33.8,29.8,30.29,NW,322,5.0,7.0,85,0.00,CLR,CLR,0.00,0.0,WeatherDisplay:10.37,2013-02-08 21:19:00,
2013-02-08 15:24:00,33.6,29.6,30.29,NW,320,3.0,8.0,85,0.00,CLR,CLR,0.00,0.0,WeatherDisplay:10.37,2013-02-08 21:24:00,
2013-02-08 15:34:00,33.2,29.2,30.30,NW,321,3.0,7.0,85,0.00,CLR,CLR,0.00,0.0,WeatherDisplay:10.37,2013-02-08 21:34:00,
2013-02-08 15:44:00,32.3,28.3,30.30,NW,323,2.0,6.0,85,0.00,CLR,CLR,0.00,0.0,WeatherDisplay:10.37,2013-02-08 21:44:00,
2013-02-08 15:49:00,32.2,28.8,30.30,NW,322,5.0,6.0,87,0.00,CLR,CLR,0.00,0.0,WeatherDisplay:10.37,2013-02-08 21:49:00,
2013-02-08 15:54:00,32.1,28.1,30.30,NW,317,3.0,9.0,85,0.00,CLR,CLR,0.00,0.0,WeatherDisplay:10.37,2013-02-08 21:54:00,
2013-02-08 15:59:00,31.7,28.0,30.30,NW,317,3.0,8.0,86,0.00,CLR,CLR,0.00,0.0,WeatherDisplay:10.37,2013-02-08 21:59:00,
2013-02-08 16:04:00,31.9,28.2,30.30,NW,313,5.0,8.0,86,0.00,CLR,CLR,0.00,0.0,WeatherDisplay:10.37,2013-02-08 22:04:00,
2013-02-08 16:09:00,31.8,27.8,30.31,NW,315,5.0,7.0,85,0.00,CLR,CLR,0.00,0.0,WeatherDisplay:10.37,2013-02-08 22:09:00,
2013-02-08 16:14:00,31.7,28.0,30.31,NW,316,5.0,7.0,86,0.00,CLR,CLR,0.00,0.0,WeatherDisplay:10.37,2013-02-08 22:14:00,
2013-02-08 16:19:00,31.7,28.0,30.31,NW,320,3.0,7.0,86,0.00,CLR,CLR,0.00,0.0,WeatherDisplay:10.37,2013-02-08 22:19:00,
2013-02-08 16:24:00,31.4,27.7,30.31,NW,321,3.0,6.0,86,0.00,CLR,CLR,0.00,0.0,WeatherDisplay:10.37,2013-02-08 22:24:00,
2013-02-08 16:29:00,31.4,28.0,30.31,NW,313,3.0,5.0,87,0.00,CLR,CLR,0.00,0.0,WeatherDisplay:10.37,2013-02-08 22:29:00,
2013-02-08 16:34:00,31.6,28.5,30.31,NW,317,2.0,5.0,88,0.00,CLR,CLR,0.00,0.0,WeatherDisplay:10.37,2013-02-08 22:34:00,
2013-02-08 16:39:00,31.7,28.0,30.31,NW,322,3.0,6.0,86,0.00,CLR,CLR,0.00,0.0,WeatherDisplay:10.37,2013-02-08 22:39:00,
2013-02-08 16:44:00,31.4,27.7,30.31,NW,319,5.0,7.0,86,0.00,CLR,CLR,0.00,0.0,WeatherDisplay:10.37,2013-02-08 22:44:00,
2013-02-08 16:49:00,30.9,27.2,30.32,NW,312,5.0,7.0,86,0.00,CLR,CLR,0.00,0.0,WeatherDisplay:10.37,2013-02-08 22:49:00,
2013-02-08 16:54:00,30.4,27.0,30.32,NW,312,5.0,7.0,87,0.00,CLR,CLR,0.00,0.0,WeatherDisplay:10.37,2013-02-08 22:54:00,
2013-02-08 16:59:00,29.9,26.8,30.32,NW,309,3.0,6.0,88,0.00,CLR,CLR,0.00,0.0,WeatherDisplay:10.37,2013-02-08 22:59:00,
2013-02-08 17:04:00,29.7,26.8,30.33,NW,305,3.0,7.0,89,0.00,CLR,CLR,0.00,0.0,WeatherDisplay:10.37,2013-02-08 23:04:00,
2013-02-08 17:14:00,29.2,26.4,30.33,NW,311,2.0,6.0,89,0.00,CLR,CLR,0.00,0.0,WeatherDisplay:10.37,2013-02-08 23:14:00,
2013-02-08 17:24:00,28.8,26.0,30.34,NW,304,2.0,4.0,89,0.00,CLR,CLR,0.00,0.0,WeatherDisplay:10.37,2013-02-08 23:24:00,
2013-02-08 17:29:00,28.6,26.0,30.33,NW,307,2.0,3.0,90,0.00,CLR,CLR,0.00,0.0,WeatherDisplay:10.37,2013-02-08 23:29:00,
2013-02-08 17:34:00,28.3,25.7,30.34,NW,310,3.0,6.0,90,0.00,CLR,CLR,0.00,0.0,WeatherDisplay:10.37,2013-02-08 23:34:00,
2013-02-08 17:39:00,28.2,25.6,30.34,WNW,298,2.0,3.0,90,0.00,CLR,CLR,0.00,0.0,WeatherDisplay:10.37,2013-02-08 23:39:00,
2013-02-08 17:44:00,28.0,25.7,30.35,WNW,293,3.0,5.0,91,0.00,CLR,CLR,0.00,0.0,WeatherDisplay:10.37,2013-02-08 23:44:00,
2013-02-08 17:49:00,27.9,25.6,30.35,WNW,292,2.0,4.0,91,0.00,CLR,CLR,0.00,0.0,WeatherDisplay:10.37,2013-02-08 23:49:00,
2013-02-08 17:54:00,27.8,25.8,30.35,WNW,290,1.0,3.0,92,0.00,CLR,CLR,0.00,0.0,WeatherDisplay:10.37,2013-02-08 23:54:00,
2013-02-08 17:59:00,27.8,25.7,30.35,WNW,291,2.0,3.0,92,0.00,CLR,CLR,0.00,0.0,WeatherDisplay:10.37,2013-02-08 23:59:00,
2013-02-08 18:04:00,27.6,25.6,30.35,WNW,299,1.0,4.0,92,0.00,CLR,CLR,0.00,0.0,WeatherDisplay:10.37,2013-02-09 00:04:00,
2013-02-08 18:09:00,27.6,25.6,30.35,WNW,296,2.0,4.0,92,0.00,CLR,CLR,0.00,0.0,WeatherDisplay:10.37,2013-02-09 00:09:00,
2013-02-08 18:14:00,27.7,25.7,30.35,WNW,300,3.0,5.0,92,0.00,CLR,CLR,0.00,0.0,WeatherDisplay:10.37,2013-02-09 00:14:00,
2013-02-08 18:24:00,27.8,25.8,30.35,WNW,297,2.0,4.0,92,0.00,CLR,CLR,0.00,0.0,WeatherDisplay:10.37,2013-02-09 00:24:00,
2013-02-08 18:34:00,27.8,25.8,30.35,NW,307,2.0,5.0,92,0.00,CLR,CLR,0.00,0.0,WeatherDisplay:10.37,2013-02-09 00:34:00,
2013-02-08 18:39:00,27.8,25.8,30.35,NW,320,1.0,4.0,92,0.00,CLR,CLR,0.00,0.0,WeatherDisplay:10.37,2013-02-09 00:39:00,
2013-02-08 18:44:00,27.7,25.7,30.35,NW,325,2.0,4.0,92,0.00,CLR,CLR,0.00,0.0,WeatherDisplay:10.37,2013-02-09 00:44:00,
2013-02-08 18:49:00,27.6,25.6,30.35,NW,315,2.0,4.0,92,0.00,CLR,CLR,0.00,0.0,WeatherDisplay:10.37,2013-02-09 00:49:00,
2013-02-08 18:59:00,27.6,25.6,30.35,NW,304,2.0,4.0,92,0.00,CLR,CLR,0.00,0.0,WeatherDisplay:10.37,2013-02-09 00:59:00,
2013-02-08 19:04:00,27.5,25.5,30.35,NW,305,2.0,3.0,92,0.00,CLR,CLR,0.00,0.0,WeatherDisplay:10.37,2013-02-09 01:04:00,
2013-02-08 19:09:00,27.5,25.5,30.35,WNW,299,2.0,5.0,92,0.00,CLR,CLR,0.00,0.0,WeatherDisplay:10.37,2013-02-09 01:09:00,
2013-02-08 19:14:00,27.4,25.4,30.35,WNW,294,2.0,4.0,92,0.00,CLR,CLR,0.00,0.0,WeatherDisplay:10.37,2013-02-09 01:14:00,
2013-02-08 19:24:00,27.1,25.1,30.36,WNW,292,2.0,4.0,92,0.00,CLR,CLR,0.00,0.0,WeatherDisplay:10.37,2013-02-09 01:24:00,
2013-02-08 19:34:00,27.0,25.0,30.36,West,279,1.0,3.0,92,0.00,CLR,CLR,0.00,0.0,WeatherDisplay:10.37,2013-02-09 01:34:00,
2013-02-08 19:39:00,26.9,24.9,30.36,WNW,282,2.0,4.0,92,0.00,CLR,CLR,0.00,0.0,WeatherDisplay:10.37,2013-02-09 01:39:00,
2013-02-08 19:44:00,26.7,24.7,30.36,West,276,3.0,5.0,92,0.00,CLR,CLR,0.00,0.0,WeatherDisplay:10.37,2013-02-09 01:44:00,
2013-02-08 19:49:00,26.6,24.6,30.36,West,279,2.0,6.0,92,0.00,CLR,CLR,0.00,0.0,WeatherDisplay:10.37,2013-02-09 01:49:00,
2013-02-08 19:59:00,26.5,24.5,30.37,WNW,284,2.0,5.0,92,0.00,CLR,CLR,0.00,0.0,WeatherDisplay:10.37,2013-02-09 01:59:00,
2013-02-08 20:04:00,26.5,24.5,30.36,WNW,287,2.0,4.0,92,0.00,CLR,CLR,0.00,0.0,WeatherDisplay:10.37,2013-02-09 02:04:00,
2013-02-08 20:14:00,26.5,24.5,30.36,WNW,284,2.0,4.0,92,0.00,CLR,CLR,0.00,0.0,WeatherDisplay:10.37,2013-02-09 02:14:00,
2013-02-08 20:19:00,26.4,24.4,30.36,WNW,292,2.0,3.0,92,0.00,CLR,CLR,0.00,0.0,WeatherDisplay:10.37,2013-02-09 02:19:00,
2013-02-08 20:24:00,26.4,24.4,30.36,WNW,303,2.0,5.0,92,0.00,CLR,CLR,0.00,0.0,WeatherDisplay:10.37,2013-02-09 02:24:00,
2013-02-08 20:29:00,26.4,24.4,30.36,NW,306,2.0,3.0,92,0.00,CLR,CLR,0.00,0.0,WeatherDisplay:10.37,2013-02-09 02:29:00,
2013-02-08 20:34:00,26.3,24.3,30.36,WNW,300,2.0,3.0,92,0.00,CLR,CLR,0.00,0.0,WeatherDisplay:10.37,2013-02-09 02:34:00,
2013-02-08 20:44:00,26.4,24.4,30.36,WNW,299,2.0,3.0,92,0.00,CLR,CLR,0.00,0.0,WeatherDisplay:10.37,2013-02-09 02:44:00,
2013-02-08 20:54:00,26.5,24.5,30.37,WNW,300,1.0,3.0,92,0.00,CLR,CLR,0.00,0.0,WeatherDisplay:10.37,2013-02-09 02:54:00,
2013-02-08 21:04:00,26.5,24.5,30.37,WNW,300,1.0,4.0,92,0.00,CLR,CLR,0.00,0.0,WeatherDisplay:10.37,2013-02-09 03:04:00,
2013-02-08 21:09:00,26.5,24.8,30.38,WNW,298,2.0,3.0,93,0.00,CLR,CLR,0.00,0.0,WeatherDisplay:10.37,2013-02-09 03:09:00,
2013-02-08 21:14:00,26.5,24.8,30.38,WNW,297,2.0,4.0,93,0.00,CLR,CLR,0.00,0.0,WeatherDisplay:10.37,2013-02-09 03:14:00,
2013-02-08 21:19:00,26.5,24.8,30.38,WNW,298,2.0,4.0,93,0.00,CLR,CLR,0.00,0.0,WeatherDisplay:10.37,2013-02-09 03:19:00,
2013-02-08 21:24:00,26.5,24.7,30.38,WNW,296,3.0,4.0,93,0.00,CLR,CLR,0.00,0.0,WeatherDisplay:10.37,2013-02-09 03:24:00,
2013-02-08 21:34:00,26.3,24.3,30.37,NW,311,1.0,4.0,92,0.00,CLR,CLR,0.00,0.0,WeatherDisplay:10.37,2013-02-09 03:34:00,
2013-02-08 21:44:00,26.3,24.6,30.38,NW,305,2.0,4.0,93,0.00,CLR,CLR,0.00,0.0,WeatherDisplay:10.37,2013-02-09 03:44:00,
2013-02-08 21:49:00,26.3,24.6,30.38,WNW,301,2.0,3.0,93,0.00,CLR,CLR,0.00,0.0,WeatherDisplay:10.37,2013-02-09 03:49:00,
2013-02-08 21:54:00,26.3,24.6,30.38,WNW,300,2.0,3.0,93,0.00,CLR,CLR,0.00,0.0,WeatherDisplay:10.37,2013-02-09 03:54:00,
2013-02-08 22:04:00,26.3,24.6,30.38,WNW,297,1.0,3.0,93,0.00,CLR,CLR,0.00,0.0,WeatherDisplay:10.37,2013-02-09 04:04:00,
2013-02-08 22:14:00,26.3,24.6,30.38,WNW,301,1.0,4.0,93,0.00,CLR,CLR,0.00,0.0,WeatherDisplay:10.37,2013-02-09 04:14:00,
2013-02-08 22:19:00,26.3,24.6,30.38,WNW,303,1.0,3.0,93,0.00,CLR,CLR,0.00,0.0,WeatherDisplay:10.37,2013-02-09 04:19:00,
2013-02-08 22:29:00,26.3,24.6,30.37,WNW,292,2.0,4.0,93,0.00,CLR,CLR,0.00,0.0,WeatherDisplay:10.37,2013-02-09 04:29:00,
2013-02-08 22:34:00,26.3,24.6,30.37,WNW,290,2.0,3.0,93,0.00,CLR,CLR,0.00,0.0,WeatherDisplay:10.37,2013-02-09 04:34:00,
2013-02-08 22:39:00,26.3,24.6,30.37,WNW,295,1.0,3.0,93,0.00,CLR,CLR,0.00,0.0,WeatherDisplay:10.37,2013-02-09 04:39:00,
2013-02-08 22:44:00,26.4,24.6,30.37,WNW,296,1.0,3.0,93,0.00,CLR,CLR,0.00,0.0,WeatherDisplay:10.37,2013-02-09 04:44:00,
2013-02-08 22:54:00,26.3,24.6,30.36,WNW,292,1.0,3.0,93,0.00,CLR,CLR,0.00,0.0,WeatherDisplay:10.37,2013-02-09 04:54:00,
2013-02-08 22:59:00,26.3,24.6,30.36,WNW,292,1.0,2.0,93,0.00,CLR,CLR,0.00,0.0,WeatherDisplay:10.37,2013-02-09 04:59:00,
2013-02-08 23:04:00,26.3,24.6,30.36,WNW,292,0.0,2.0,93,0.00,CLR,CLR,0.00,0.0,WeatherDisplay:10.37,2013-02-09 05:04:00,
2013-02-08 23:09:00,26.3,24.6,30.36,WNW,292,1.0,3.0,93,0.00,CLR,CLR,0.00,0.0,WeatherDisplay:10.37,2013-02-09 05:09:00,
2013-02-08 23:14:00,26.4,24.7,30.37,NW,307,1.0,4.0,93,0.00,CLR,CLR,0.00,0.0,WeatherDisplay:10.37,2013-02-09 05:14:00,
2013-02-08 23:19:00,26.4,24.6,30.37,NW,309,1.0,3.0,93,0.00,CLR,CLR,0.00,0.0,WeatherDisplay:10.37,2013-02-09 05:19:00,
2013-02-08 23:29:00,26.4,24.7,30.38,NW,309,1.0,3.0,93,0.00,CLR,CLR,0.00,0.0,WeatherDisplay:10.37,2013-02-09 05:29:00,
2013-02-08 23:34:00,26.5,24.8,30.38,WNW,302,2.0,3.0,93,0.00,CLR,CLR,0.00,0.0,WeatherDisplay:10.37,2013-02-09 05:34:00,
2013-02-08 23:39:00,26.5,24.8,30.38,WNW,290,1.0,2.0,93,0.00,CLR,CLR,0.00,0.0,WeatherDisplay:10.37,2013-02-09 05:39:00,
2013-02-08 23:44:00,26.5,24.8,30.38,West,279,1.0,2.0,93,0.00,CLR,CLR,0.00,0.0,WeatherDisplay:10.37,2013-02-09 05:44:00,
2013-02-08 23:54:00,26.5,24.8,30.38,West,279,0.0,1.0,93,0.00,CLR,CLR,0.00,0.0,WeatherDisplay:10.37,2013-02-09 05:54:00,
2013-02-08 23:59:00,26.5,24.8,30.38,West,279,0.0,2.0,93,0.00,CLR,CLR,0.00,0.0,WeatherDisplay:10.37,2013-02-09 05:59:00,